KNTD/NTD METAR and TAF weather

Enter ICAO airport designator
Station Type Date Time Source
KNTD METAR 2020/12/05 05:52 UTC NOAA

KNTD 050552Z 34006KT 10SM FEW250 07/00 A3020 RMK AO2 SLP227 T00720000 10189 20072 53014 $


Station Type Date Time Source
KNTD Decoded METAR 2020/12/05 05:52 UTC NOAA

NAWCWPNS POINT MUGU, CA, CA, United States (KNTD) 34-07N 119-07W 2M
Dec 05, 2020 - 12:52 AM EST / 2020.12.05 0552 UTC
Wind: from the NNW (340 degrees) at 7 MPH (6 KT):0
Visibility: 10 mile(s):0
Sky conditions: mostly clear
Temperature: 45.0 F (7.2 C)
Dew Point: 32.0 F (0.0 C)
Relative Humidity: 60%
Pressure (altimeter): 30.2 in. Hg (1022 hPa)
Pressure tendency: 0.04 inches (1.4 hPa) higher than three hours ago
ob: KNTD 050552Z 34006KT 10SM FEW250 07/00 A3020 RMK AO2 SLP227 T00720000 10189 20072 53014
cycle: 6

Station Type Date Time Source
KNTD TAF 2020/12/04 23:59 UTC NOAA

TAF KNTD 0423/0523 27008KT 9999 FEW200 SCT250 QNH3009INS
FM050200 VRB05KT 9999 SCT220 QNH3006INS
TEMPO 0515/0520 05011KT
BECMG 0519/0521 28009KT 9999 FEW120 SCT200 QNH3010INS AUTOMATED SENSOR METWATCH 0507 TIL 0514 T06/0512Z T21/0521Z FS30159

Example: see airport list